<?xml version="1.0" encoding="UTF-8" standalone="no" ?>
<gpx xmlns="http://www.topografix.com/GPX/1/1" xmlns:xsi="http://www.w3.org/2001/XMLSchema-instance" xsi:schemaLocation="http://www.topografix.com/GPX/1/1 http://www.topografix.com/GPX/1/1/gpx.xsd" version="1.1" creator="VisuGPX - https://www.visugpx.com">
  <metadata>
    <name>Stevenson Samedi 17 Septembre</name>
    <desc><![CDATA[Florac - Cassagnas après une journée de pause à Florac
couvert, légère pluie le soir.
]]></desc>
  </metadata>
  <trk>
    <name><![CDATA[ACTIVE LOG132357]]></name>
    <trkseg>
      <trkpt lat="44.27128" lon="3.73005">
        <ele>694.422</ele>
        <time>2011-09-17T11:23:57Z</time>
      </trkpt>
      <trkpt lat="44.27119" lon="3.72975">
        <ele>695.048</ele>
        <time>2011-09-17T11:24:07Z</time>
      </trkpt>
      <trkpt lat="44.27126" lon="3.72979">
        <ele>694.501</ele>
        <time>2011-09-17T11:24:17Z</time>
      </trkpt>
      <trkpt lat="44.27126" lon="3.72975">
        <ele>694.921</ele>
        <time>2011-09-17T11:24:27Z</time>
      </trkpt>
      <trkpt lat="44.27135" lon="3.72995">
        <ele>694.842</ele>
        <time>2011-09-17T11:24:37Z</time>
      </trkpt>
      <trkpt lat="44.27137" lon="3.72999">
        <ele>694.58</ele>
        <time>2011-09-17T11:24:47Z</time>
      </trkpt>
      <trkpt lat="44.27166" lon="3.73013">
        <ele>694.345</ele>
        <time>2011-09-17T11:24:57Z</time>
      </trkpt>
      <trkpt lat="44.27176" lon="3.73013">
        <ele>694.189</ele>
        <time>2011-09-17T11:25:07Z</time>
      </trkpt>
      <trkpt lat="44.27189" lon="3.7301">
        <ele>694.171</ele>
        <time>2011-09-17T11:25:17Z</time>
      </trkpt>
      <trkpt lat="44.27201" lon="3.73008">
        <ele>695.101</ele>
        <time>2011-09-17T11:25:27Z</time>
      </trkpt>
      <trkpt lat="44.27206" lon="3.73006">
        <ele>695.13</ele>
        <time>2011-09-17T11:25:37Z</time>
      </trkpt>
      <trkpt lat="44.27212" lon="3.73006">
        <ele>694.686</ele>
        <time>2011-09-17T11:25:47Z</time>
      </trkpt>
      <trkpt lat="44.27215" lon="3.73013">
        <ele>694.416</ele>
        <time>2011-09-17T11:25:57Z</time>
      </trkpt>
      <trkpt lat="44.27211" lon="3.7301">
        <ele>695.003</ele>
        <time>2011-09-17T11:26:07Z</time>
      </trkpt>
      <trkpt lat="44.27211" lon="3.7301">
        <ele>695.294</ele>
        <time>2011-09-17T11:26:17Z</time>
      </trkpt>
      <trkpt lat="44.2721" lon="3.73008">
        <ele>695.172</ele>
        <time>2011-09-17T11:26:27Z</time>
      </trkpt>
      <trkpt lat="44.27205" lon="3.72998">
        <ele>695.209</ele>
        <time>2011-09-17T11:26:37Z</time>
      </trkpt>
      <trkpt lat="44.27207" lon="3.72999">
        <ele>695.074</ele>
        <time>2011-09-17T11:26:47Z</time>
      </trkpt>
      <trkpt lat="44.27202" lon="3.72998">
        <ele>695.87</ele>
        <time>2011-09-17T11:26:57Z</time>
      </trkpt>
      <trkpt lat="44.27204" lon="3.73002">
        <ele>694.712</ele>
        <time>2011-09-17T11:27:01Z</time>
      </trkpt>
    </trkseg>
  </trk>
</gpx>